Time;durP1;ratioP1;P1;durP2;ratioP2;P2;SDS_P1;SDS_P2;PMS_P1;PMS_P2;Temp;Humidity;BMP_temperature;BMP_pressure;BME280_temperature;BME280_humidity;BME280_pressure;Samples;Min_cycle;Max_cycle;Signal;HPM_P1;HPM_P2
2021/09/27 00:02:06;;;;;;;11.70;10.27;;;17.00;97.80;;;;;;4981412;28;20205;-82
2021/09/27 00:04:32;;;;;;;11.05;9.32;;;16.90;98.20;;;;;;4996720;28;20427;-81
2021/09/27 00:06:57;;;;;;;9.88;8.88;;;16.90;98.10;;;;;;4983374;28;20029;-81
2021/09/27 00:09:23;;;;;;;12.23;9.65;;;16.90;98.40;;;;;;4977406;28;20164;-81
2021/09/27 00:11:48;;;;;;;12.50;9.23;;;16.80;98.20;;;;;;4995195;28;20128;-82
2021/09/27 00:14:14;;;;;;;10.48;8.68;;;16.80;97.90;;;;;;4993841;28;20033;-82
2021/09/27 00:16:40;;;;;;;9.30;7.80;;;16.80;98.20;;;;;;4979083;28;21077;-81
2021/09/27 00:19:05;;;;;;;10.38;9.27;;;16.80;98.00;;;;;;4976227;28;20405;-82
2021/09/27 00:21:33;;;;;;;13.52;10.00;;;16.70;98.20;;;;;;4996022;28;20038;-81
2021/09/27 00:23:59;;;;;;;16.42;9.40;;;16.60;98.60;;;;;;4993536;28;20049;-82
2021/09/27 00:26:25;;;;;;;12.43;8.65;;;16.60;98.30;;;;;;4976418;28;20501;-82
2021/09/27 00:28:51;;;;;;;11.50;8.88;;;16.60;98.50;;;;;;4994573;28;20025;-81
2021/09/27 00:31:16;;;;;;;11.73;9.13;;;16.50;98.70;;;;;;4984980;28;20029;-82
2021/09/27 00:33:42;;;;;;;9.60;8.60;;;16.50;98.70;;;;;;4983019;28;20104;-82
2021/09/27 00:36:08;;;;;;;12.95;9.38;;;16.50;98.70;;;;;;4982108;28;20025;-81
2021/09/27 00:38:33;;;;;;;12.40;9.70;;;16.40;99.20;;;;;;4993615;28;20060;-81
2021/09/27 00:41:05;;;;;;;9.93;8.88;;;16.20;98.50;;;;;;4982293;28;20041;-82
2021/09/27 00:43:31;;;;;;;13.18;10.18;;;16.20;99.00;;;;;;5013270;28;20029;-82
2021/09/27 00:45:58;;;;;;;14.30;10.68;;;16.10;98.80;;;;;;4994650;28;20042;-82
2021/09/27 00:48:25;;;;;;;10.18;8.40;;;16.20;98.50;;;;;;4980440;28;20541;-82
2021/09/27 00:50:53;;;;;;;12.30;9.80;;;16.10;98.80;;;;;;4983534;28;20025;-81
2021/09/27 00:53:24;;;;;;;13.13;9.10;;;16.00;98.60;;;;;;4979846;28;20033;-82
2021/09/27 00:55:50;;;;;;;10.45;8.57;;;16.00;98.60;;;;;;4983655;28;20037;-82
2021/09/27 00:58:16;;;;;;;13.20;10.68;;;16.00;98.80;;;;;;4994057;28;20048;-81
2021/09/27 01:00:41;;;;;;;11.48;9.45;;;16.00;98.40;;;;;;4980481;28;20497;-83
2021/09/27 01:03:07;;;;;;;12.98;9.40;;;15.90;98.70;;;;;;4996918;28;20033;-82
2021/09/27 01:05:33;;;;;;;13.77;10.95;;;15.90;98.90;;;;;;4986051;28;20032;-83
2021/09/27 01:08:07;;;;;;;11.38;9.57;;;15.80;98.70;;;;;;4977090;28;20045;-81
2021/09/27 01:10:38;;;;;;;12.15;9.43;;;15.70;98.80;;;;;;5012473;28;20080;-82
2021/09/27 01:13:26;;;;;;;13.13;9.93;;;15.70;99.20;;;;;;5011452;28;20044;-82
2021/09/27 01:16:14;;;;;;;10.65;8.82;;;15.70;99.50;;;;;;5012440;28;20228;-82
2021/09/27 01:18:39;;;;;;;10.95;8.63;;;15.70;98.70;;;;;;4997250;28;20112;-82
2021/09/27 01:21:29;;;;;;;11.80;9.68;;;15.70;99.20;;;;;;5009678;28;20117;-81
2021/09/27 01:24:07;;;;;;;11.15;8.93;;;15.70;98.60;;;;;;5011030;28;20132;-81
2021/09/27 01:26:42;;;;;;;9.27;8.32;;;15.70;99.00;;;;;;5011013;28;20052;-83
2021/09/27 01:29:13;;;;;;;8.63;7.72;;;15.70;98.90;;;;;;5010719;28;20120;-82
2021/09/27 01:31:58;;;;;;;10.27;7.88;;;15.70;98.90;;;;;;5004892;28;20042;-82
2021/09/27 01:34:38;;;;;;;12.68;10.07;;;15.60;98.90;;;;;;5029532;28;20029;-82
2021/09/27 01:37:09;;;;;;;11.30;9.82;;;15.60;99.00;;;;;;4995656;28;20254;-81
2021/09/27 01:40:02;;;;;;;13.73;10.10;;;15.50;99.30;;;;;;4992064;28;20052;-82
2021/09/27 01:42:49;;;;;;;16.90;10.93;;;15.50;99.50;;;;;;5013580;28;20515;-82
2021/09/27 01:45:26;;;;;;;;;;;15.50;99.70;;;;;;4998943;28;20037;-81
2021/09/27 01:48:14;;;;;;;13.15;9.63;;;15.60;99.80;;;;;;5009792;28;19987;-81
2021/09/27 01:50:55;;;;;;;10.88;8.68;;;15.60;99.80;;;;;;4989422;28;20308;-81
2021/09/27 01:53:24;;;;;;;10.95;9.38;;;15.60;99.80;;;;;;4967838;28;20606;-81
2021/09/27 01:56:21;;;;;;;12.13;8.23;;;15.60;99.90;;;;;;4991878;28;20036;-82
2021/09/27 01:59:23;;;;;;;11.15;8.23;;;15.70;99.60;;;;;;5009133;28;20474;-81
2021/09/27 02:02:02;;;;;;;12.57;8.63;;;15.60;99.90;;;;;;4990860;28;20029;-82
2021/09/27 02:04:45;;;;;;;9.90;7.75;;;15.60;99.80;;;;;;4994311;28;20030;-81
2021/09/27 02:07:11;;;;;;;9.27;8.25;;;15.70;99.50;;;;;;4993095;28;20095;-81
2021/09/27 02:09:48;;;;;;;8.90;7.70;;;15.70;99.50;;;;;;4977738;28;20428;-81
2021/09/27 02:12:19;;;;;;;14.15;8.93;;;15.80;99.80;;;;;;4994021;28;20029;-81
2021/09/27 02:15:05;;;;;;;9.60;7.57;;;15.80;99.70;;;;;;4992457;28;20041;-82
2021/09/27 02:17:37;;;;;;;12.02;8.63;;;15.70;99.60;;;;;;5009645;28;20041;-81
2021/09/27 02:20:16;;;;;;;9.45;7.50;;;15.70;99.60;;;;;;4976851;28;20033;-80
2021/09/27 02:23:03;;;;;;;10.95;7.53;;;15.80;99.70;;;;;;4975781;28;20038;-81
2021/09/27 02:25:33;;;;;;;12.40;8.02;;;15.70;99.80;;;;;;4991078;28;20037;-81
2021/09/27 02:28:04;;;;;;;11.02;8.70;;;15.60;99.80;;;;;;4979335;28;20033;-81
2021/09/27 02:30:35;;;;;;;12.52;8.20;;;15.70;99.90;;;;;;5008265;28;20390;-81
2021/09/27 02:33:04;;;;;;;14.00;8.00;;;15.70;99.60;;;;;;4987902;28;20493;-82
2021/09/27 02:35:39;;;;;;;9.15;7.97;;;15.70;99.90;;;;;;5008035;28;20537;-81
2021/09/27 02:38:15;;;;;;;11.18;8.00;;;15.70;99.80;;;;;;4992939;28;20030;-81
2021/09/27 02:40:54;;;;;;;;;;;15.70;99.40;;;;;;4991235;28;20382;-81
2021/09/27 02:43:20;;;;;;;11.57;8.32;;;15.70;99.70;;;;;;4992394;28;19909;-81
2021/09/27 02:45:46;;;;;;;10.70;8.10;;;15.70;99.80;;;;;;4978127;28;20083;-81
2021/09/27 02:48:18;;;;;;;12.90;9.40;;;15.60;99.60;;;;;;4996354;28;20377;-84
2021/09/27 02:50:49;;;;;;;11.00;8.18;;;15.60;99.90;;;;;;5009591;28;20034;-84
2021/09/27 02:53:15;;;;;;;10.88;8.73;;;15.70;99.90;;;;;;4976656;28;20072;-84
2021/09/27 02:55:43;;;;;;;12.88;8.15;;;15.60;99.70;;;;;;4997022;28;20072;-83
2021/09/27 02:58:52;;;;;;;11.38;8.18;;;15.70;99.90;;;;;;5028379;28;20397;-84
2021/09/27 03:01:17;;;;;;;12.02;8.00;;;15.60;99.90;;;;;;5002383;28;20091;-84
2021/09/27 03:03:52;;;;;;;11.07;8.68;;;15.70;99.90;;;;;;5025706;28;20045;-83
2021/09/27 03:06:55;;;;;;;15.45;9.55;;;15.70;99.90;;;;;;5002722;28;20461;-83
2021/09/27 03:09:42;;;;;;;10.60;8.40;;;15.80;99.90;;;;;;5028933;28;20029;-84
2021/09/27 03:12:19;;;;;;;12.65;8.23;;;15.80;99.90;;;;;;5010066;28;20685;-84
2021/09/27 03:15:08;;;;;;;9.77;8.75;;;15.80;99.90;;;;;;5005971;28;20037;-84
2021/09/27 03:17:55;;;;;;;11.55;9.45;;;15.80;99.90;;;;;;5014684;28;20057;-83
2021/09/27 03:20:55;;;;;;;12.65;9.70;;;15.80;99.90;;;;;;4992861;28;20109;-84
2021/09/27 03:23:58;;;;;;;13.25;9.93;;;15.90;99.90;;;;;;4993869;28;20040;-84
2021/09/27 03:26:45;;;;;;;15.30;10.50;;;15.90;99.90;;;;;;5028696;28;20125;-84
2021/09/27 03:29:14;;;;;;;10.70;8.57;;;15.90;99.90;;;;;;5014610;28;20034;-84
2021/09/27 03:32:13;;;;;;;12.10;9.30;;;15.90;99.90;;;;;;4995319;28;20049;-84
2021/09/27 03:34:49;;;;;;;11.45;8.80;;;16.00;99.90;;;;;;5010151;28;20469;-84
2021/09/27 03:37:36;;;;;;;12.15;7.45;;;16.00;99.90;;;;;;4990634;28;20036;-83
2021/09/27 03:40:38;;;;;;;9.30;8.20;;;16.00;99.90;;;;;;4994423;28;20036;-83
2021/09/27 03:43:33;;;;;;;13.25;8.65;;;15.90;99.90;;;;;;4999652;28;20057;-83
2021/09/27 03:46:04;;;;;;;14.02;8.95;;;15.90;99.90;;;;;;4997721;28;20041;-83
2021/09/27 03:48:45;;;;;;;10.55;7.93;;;15.90;99.90;;;;;;5010688;28;20038;-84
2021/09/27 03:51:15;;;;;;;10.32;8.18;;;15.90;99.90;;;;;;4994726;28;20116;-84
2021/09/27 03:53:53;;;;;;;11.30;8.40;;;15.90;99.90;;;;;;4982802;28;20026;-84
2021/09/27 03:56:24;;;;;;;9.73;8.38;;;15.80;99.90;;;;;;4991140;28;20033;-84
2021/09/27 03:58:59;;;;;;;12.00;8.85;;;15.80;99.90;;;;;;4981524;28;20370;-84
2021/09/27 04:01:38;;;;;;;10.68;7.35;;;15.80;99.90;;;;;;4992061;28;20037;-85
2021/09/27 04:04:16;;;;;;;15.45;10.07;;;15.90;99.90;;;;;;4998478;28;20030;-85
2021/09/27 04:06:51;;;;;;;12.35;8.70;;;15.80;99.90;;;;;;4995969;28;20033;-85
2021/09/27 04:09:33;;;;;;;11.65;8.52;;;15.80;99.90;;;;;;5000984;28;20038;-85
2021/09/27 04:12:14;;;;;;;11.52;9.02;;;15.90;99.90;;;;;;4998332;28;20030;-84
2021/09/27 04:14:42;;;;;;;13.70;8.27;;;15.80;99.90;;;;;;5010570;28;20041;-84
2021/09/27 04:17:14;;;;;;;15.85;9.60;;;15.80;99.90;;;;;;4999328;28;20446;-85
2021/09/27 04:20:02;;;;;;;12.98;9.23;;;15.80;99.90;;;;;;4996481;28;20042;-85
2021/09/27 04:22:35;;;;;;;9.38;8.02;;;15.70;99.90;;;;;;5011085;28;20443;-85
2021/09/27 04:25:25;;;;;;;9.77;7.78;;;15.70;99.90;;;;;;4995182;28;20107;-85
2021/09/27 04:27:57;;;;;;;8.27;6.70;;;15.80;99.90;;;;;;5026978;28;20080;-84
2021/09/27 04:30:54;;;;;;;10.15;7.50;;;15.80;99.90;;;;;;5033041;28;20041;-83
2021/09/27 04:33:25;;;;;;;9.93;6.82;;;15.90;99.90;;;;;;5015464;28;20041;-84
2021/09/27 04:36:11;;;;;;;11.57;8.93;;;15.80;99.90;;;;;;5014380;28;20033;-84
2021/09/27 04:38:37;;;;;;;13.40;9.05;;;15.90;99.90;;;;;;5003123;28;20088;-84
2021/09/27 04:41:40;;;;;;;12.82;9.38;;;15.90;99.90;;;;;;4983934;28;20117;-84
2021/09/27 04:44:12;;;;;;;13.30;9.85;;;15.90;99.90;;;;;;4998074;28;20034;-84
2021/09/27 04:47:00;;;;;;;10.27;9.15;;;15.90;99.90;;;;;;5000176;28;20044;-84
2021/09/27 04:49:29;;;;;;;8.00;6.97;;;15.90;99.90;;;;;;5020117;28;20174;-85
2021/09/27 04:52:13;;;;;;;10.98;8.77;;;15.90;99.90;;;;;;5033281;28;20037;-85
2021/09/27 04:54:51;;;;;;;12.10;9.18;;;15.90;99.90;;;;;;5008686;28;20033;-84
2021/09/27 04:57:40;;;;;;;11.30;9.20;;;15.90;99.90;;;;;;4999832;28;20025;-84
2021/09/27 05:00:27;;;;;;;11.85;7.85;;;15.90;99.90;;;;;;4992220;28;20036;-84
2021/09/27 05:03:11;;;;;;;8.97;6.87;;;16.00;99.90;;;;;;4656273;28;10000835;-84
2021/09/27 05:06:03;;;;;;;13.75;7.50;;;16.00;99.90;;;;;;5005781;28;20489;-84
2021/09/27 05:08:57;;;;;;;9.80;8.10;;;16.00;99.90;;;;;;5007735;28;20405;-85
2021/09/27 05:11:30;;;;;;;10.48;7.55;;;16.00;99.90;;;;;;5011361;28;20032;-84
2021/09/27 05:14:27;;;;;;;14.02;8.55;;;16.00;99.80;;;;;;5012102;28;20044;-84
2021/09/27 05:17:11;;;;;;;;;;;16.10;99.90;;;;;;5014311;28;20341;-84
2021/09/27 05:19:40;;;;;;;8.70;6.82;;;16.10;99.90;;;;;;5025511;28;20322;-84
2021/09/27 05:22:21;;;;;;;9.65;7.28;;;16.10;99.80;;;;;;5009780;28;20124;-85
2021/09/27 05:25:15;;;;;;;11.00;8.38;;;16.10;99.90;;;;;;5014501;28;20033;-84
2021/09/27 05:27:56;;;;;;;11.05;8.00;;;16.10;99.80;;;;;;5009975;28;20482;-83
2021/09/27 05:30:31;;;;;;;14.40;8.95;;;16.00;99.90;;;;;;4972515;28;20125;-84
2021/09/27 05:33:17;;;;;;;13.50;9.07;;;16.00;99.90;;;;;;5008848;28;20448;-84
2021/09/27 05:36:11;;;;;;;8.50;7.45;;;16.00;99.90;;;;;;4994359;28;20030;-85
2021/09/27 05:39:03;;;;;;;9.45;8.30;;;16.00;99.90;;;;;;4993647;28;20116;-84
2021/09/27 05:42:06;;;;;;;11.70;7.78;;;16.00;99.90;;;;;;5006121;28;20497;-84
2021/09/27 05:44:53;;;;;;;9.73;7.35;;;15.90;99.90;;;;;;4992180;28;20040;-84
2021/09/27 05:47:46;;;;;;;11.73;8.30;;;16.10;99.90;;;;;;4981801;28;20041;-84
2021/09/27 05:50:15;;;;;;;8.82;7.55;;;16.00;99.90;;;;;;5014322;28;20033;-84
2021/09/27 05:52:53;;;;;;;10.25;8.07;;;16.00;99.90;;;;;;4987877;28;20030;-84
2021/09/27 05:56:00;;;;;;;8.18;6.85;;;16.10;99.90;;;;;;4999013;28;20080;-84
2021/09/27 05:58:28;;;;;;;10.05;7.07;;;16.10;99.90;;;;;;5023694;28;20049;-84
2021/09/27 06:01:13;;;;;;;8.77;7.15;;;16.10;99.80;;;;;;5009026;28;20033;-83
2021/09/27 06:03:48;;;;;;;10.10;6.35;;;16.20;99.90;;;;;;5012880;28;20060;-83
2021/09/27 06:06:42;;;;;;;8.05;6.75;;;16.10;99.90;;;;;;5008180;28;20033;-83
2021/09/27 06:09:13;;;;;;;8.68;7.28;;;16.10;99.90;;;;;;4977013;28;20168;-84
2021/09/27 06:11:57;;;;;;;11.15;7.40;;;16.10;99.90;;;;;;5014450;28;20030;-83
2021/09/27 06:14:24;;;;;;;12.77;7.72;;;16.10;99.90;;;;;;5026397;28;20442;-84
2021/09/27 06:17:23;;;;;;;12.02;8.05;;;16.20;99.90;;;;;;4976161;28;20056;-83
2021/09/27 06:20:09;;;;;;;11.60;6.97;;;16.20;99.90;;;;;;5012670;28;20033;-83
2021/09/27 06:22:56;;;;;;;15.18;6.75;;;16.20;99.90;;;;;;5008222;28;20136;-83
2021/09/27 06:25:24;;;;;;;;;;;16.20;99.90;;;;;;5024954;28;20117;-84
2021/09/27 06:28:20;;;;;;;10.50;8.00;;;16.20;99.90;;;;;;4994027;28;19917;-84
2021/09/27 06:31:01;;;;;;;8.05;7.25;;;16.20;99.90;;;;;;5013468;28;20552;-84
2021/09/27 06:33:30;;;;;;;8.98;7.53;;;16.30;99.90;;;;;;4984587;28;20116;-84
2021/09/27 06:35:57;;;;;;;12.88;7.70;;;16.30;99.90;;;;;;4979124;28;20034;-84
2021/09/27 06:38:28;;;;;;;10.73;8.25;;;16.40;99.90;;;;;;4975539;28;20515;-84
2021/09/27 06:40:54;;;;;;;11.73;7.38;;;16.30;99.90;;;;;;4976569;28;20034;-84
2021/09/27 06:43:21;;;;;;;13.50;8.65;;;16.40;99.90;;;;;;4975802;28;20083;-84
2021/09/27 06:45:47;;;;;;;10.27;7.90;;;16.50;99.90;;;;;;4993997;28;20120;-84
2021/09/27 06:48:12;;;;;;;11.45;8.73;;;16.50;99.90;;;;;;4986697;28;20117;-84
2021/09/27 06:50:38;;;;;;;9.32;6.90;;;16.50;99.90;;;;;;4976784;28;20370;-84
2021/09/27 06:53:03;;;;;;;8.88;7.25;;;16.60;99.90;;;;;;4975286;28;20030;-83
2021/09/27 06:55:29;;;;;;;12.52;8.85;;;16.60;99.90;;;;;;4982899;28;20022;-83
2021/09/27 06:57:54;;;;;;;13.18;9.10;;;16.70;99.90;;;;;;4984988;28;20481;-83
2021/09/27 07:00:20;;;;;;;9.70;7.75;;;16.80;99.90;;;;;;4976017;28;20037;-84
2021/09/27 07:02:46;;;;;;;10.45;8.05;;;16.90;99.90;;;;;;4992630;28;20033;-84
2021/09/27 07:05:11;;;;;;;14.85;9.15;;;16.90;99.90;;;;;;4993784;28;20461;-84
2021/09/27 07:07:37;;;;;;;12.13;9.05;;;17.00;99.90;;;;;;4974550;28;20524;-84
2021/09/27 07:10:05;;;;;;;10.65;8.45;;;17.00;99.90;;;;;;4975980;28;20424;-84
2021/09/27 07:12:36;;;;;;;12.30;8.55;;;17.20;99.90;;;;;;4952022;28;20057;-84
2021/09/27 07:15:02;;;;;;;10.00;7.75;;;17.30;99.90;;;;;;4995191;28;20118;-84
2021/09/27 07:17:27;;;;;;;10.80;8.23;;;17.30;99.90;;;;;;4977411;28;20033;-83
2021/09/27 07:19:53;;;;;;;10.50;7.85;;;17.40;99.70;;;;;;4977567;28;20099;-84
2021/09/27 07:22:18;;;;;;;11.63;8.60;;;17.60;99.50;;;;;;4992373;28;20386;-83
2021/09/27 07:24:45;;;;;;;13.35;7.68;;;17.60;99.40;;;;;;4998180;28;20064;-84
2021/09/27 07:27:11;;;;;;;9.13;7.95;;;17.80;99.40;;;;;;4978116;28;20037;-83
2021/09/27 07:29:36;;;;;;;11.05;7.90;;;17.80;99.30;;;;;;4978729;28;20036;-84
2021/09/27 07:32:03;;;;;;;10.45;7.30;;;17.90;99.30;;;;;;4975989;28;20032;-84
2021/09/27 07:34:28;;;;;;;8.85;7.05;;;18.00;99.00;;;;;;5012374;28;20035;-83
2021/09/27 07:36:54;;;;;;;10.00;7.95;;;18.10;99.00;;;;;;4976323;28;20037;-84
2021/09/27 07:39:25;;;;;;;11.18;8.70;;;18.20;98.80;;;;;;4978696;28;20052;-83
2021/09/27 07:41:51;;;;;;;14.27;8.27;;;18.20;98.90;;;;;;4974120;28;20607;-84
2021/09/27 07:44:16;;;;;;;10.80;8.40;;;18.20;98.70;;;;;;4979212;28;20061;-84
2021/09/27 07:46:42;;;;;;;9.63;8.43;;;18.40;98.80;;;;;;4969830;28;20398;-84
2021/09/27 07:49:07;;;;;;;10.32;7.80;;;18.40;98.70;;;;;;4994249;28;20029;-84
2021/09/27 07:51:33;;;;;;;10.05;8.77;;;18.50;98.60;;;;;;4980422;28;20064;-84
2021/09/27 07:53:59;;;;;;;10.82;7.80;;;18.50;98.50;;;;;;4994614;28;20492;-84
2021/09/27 07:56:25;;;;;;;11.32;8.07;;;18.60;98.40;;;;;;4977597;28;20033;-84
2021/09/27 07:58:51;;;;;;;11.18;8.43;;;18.60;98.40;;;;;;4977241;28;20032;-84
2021/09/27 08:01:16;;;;;;;10.18;8.13;;;18.60;98.20;;;;;;4974969;28;20029;-84
2021/09/27 08:03:42;;;;;;;8.88;7.68;;;18.60;98.20;;;;;;4997839;28;20041;-84
2021/09/27 08:06:07;;;;;;;11.45;7.47;;;18.70;98.20;;;;;;4993903;28;20044;-85
2021/09/27 08:08:33;;;;;;;10.40;7.93;;;18.70;98.00;;;;;;4953425;28;20036;-85
2021/09/27 08:10:59;;;;;;;8.73;7.72;;;18.80;97.90;;;;;;4983788;28;20037;-85
2021/09/27 08:13:24;;;;;;;8.73;7.32;;;18.90;97.80;;;;;;4982740;28;20477;-84
2021/09/27 08:15:51;;;;;;;9.05;7.70;;;19.00;98.00;;;;;;4992063;28;20127;-84
2021/09/27 08:18:17;;;;;;;8.80;7.30;;;19.00;97.80;;;;;;4988472;28;20021;-84
2021/09/27 08:20:45;;;;;;;10.02;7.50;;;19.10;97.70;;;;;;4990819;28;20421;-85
2021/09/27 08:23:11;;;;;;;10.25;7.97;;;19.20;97.60;;;;;;4977711;28;20129;-84
2021/09/27 08:25:37;;;;;;;9.80;7.37;;;19.50;97.40;;;;;;4971747;28;20048;-84
2021/09/27 08:28:03;;;;;;;9.60;7.15;;;19.70;97.60;;;;;;4975975;28;20753;-84
2021/09/27 08:30:35;;;;;;;10.35;7.68;;;19.90;96.70;;;;;;4994336;28;20033;-84
2021/09/27 08:33:00;;;;;;;7.90;7.13;;;20.00;96.50;;;;;;4979417;28;20068;-84
2021/09/27 08:35:27;;;;;;;10.05;7.88;;;20.00;96.70;;;;;;4993058;28;20040;-84
2021/09/27 08:37:54;;;;;;;8.80;7.18;;;20.10;96.60;;;;;;4997348;28;20531;-85
2021/09/27 08:40:47;;;;;;;7.88;6.22;;;20.30;96.10;;;;;;4994784;28;20117;-85
2021/09/27 08:43:38;;;;;;;8.32;6.38;;;20.50;96.20;;;;;;5003407;28;20068;-85
2021/09/27 08:46:14;;;;;;;8.45;6.30;;;20.60;96.20;;;;;;4951994;28;20565;-84
2021/09/27 08:49:10;;;;;;;7.88;6.75;;;20.60;95.70;;;;;;4976562;28;20026;-84
2021/09/27 08:51:36;;;;;;;;;;;20.60;96.00;;;;;;5007512;28;20037;-85
2021/09/27 08:54:05;;;;;;;11.43;6.68;;;20.70;95.70;;;;;;5008657;28;19913;-84
2021/09/27 08:56:35;;;;;;;8.27;6.78;;;20.80;95.40;;;;;;4969688;28;20025;-85
2021/09/27 08:59:06;;;;;;;7.38;5.90;;;20.80;95.60;;;;;;4960364;28;20017;-84
2021/09/27 09:01:46;;;;;;;6.90;6.18;;;21.00;95.90;;;;;;5007644;28;20062;-85
2021/09/27 09:04:25;;;;;;;6.30;5.50;;;21.30;95.30;;;;;;4984089;28;20036;-85
2021/09/27 09:06:53;;;;;;;7.47;6.07;;;21.50;95.20;;;;;;4990585;28;20038;-84
2021/09/27 09:09:25;;;;;;;6.25;5.65;;;21.60;95.10;;;;;;4978281;28;20021;-84
2021/09/27 09:11:52;;;;;;;7.00;5.18;;;21.70;94.80;;;;;;4994414;28;20392;-84
2021/09/27 09:14:43;;;;;;;8.27;5.47;;;21.70;94.20;;;;;;5007136;28;20239;-84
2021/09/27 09:17:20;;;;;;;6.72;5.43;;;22.10;93.90;;;;;;4978806;28;20033;-84
2021/09/27 09:19:46;;;;;;;8.82;4.78;;;22.10;93.90;;;;;;4991400;28;20054;-84
2021/09/27 09:22:24;;;;;;;9.30;5.50;;;22.50;93.10;;;;;;4977629;28;20072;-84
2021/09/27 09:24:50;;;;;;;6.28;4.43;;;22.50;93.10;;;;;;4947722;28;20043;-85
2021/09/27 09:27:15;;;;;;;5.97;4.72;;;22.50;93.50;;;;;;4999585;28;20043;-85
2021/09/27 09:29:42;;;;;;;6.50;5.18;;;22.60;93.60;;;;;;4986391;28;20056;-85
2021/09/27 09:32:18;;;;;;;8.45;5.22;;;22.70;93.30;;;;;;5005421;28;20397;-85
2021/09/27 09:34:44;;;;;;;6.32;5.10;;;22.80;93.20;;;;;;4994704;28;20049;-85
2021/09/27 09:37:39;;;;;;;5.18;4.60;;;22.70;92.90;;;;;;4978247;28;20038;-85
2021/09/27 09:40:20;;;;;;;6.40;4.85;;;23.10;92.10;;;;;;4986681;28;21566;-85
2021/09/27 09:43:09;;;;;;;6.50;4.28;;;22.90;92.30;;;;;;4969343;28;20042;-85
2021/09/27 09:45:40;;;;;;;5.90;3.80;;;23.30;91.20;;;;;;4979076;28;20443;-85
2021/09/27 09:48:23;;;;;;;5.00;3.63;;;23.30;91.50;;;;;;4975696;28;20462;-85
2021/09/27 09:50:51;;;;;;;5.32;3.95;;;23.30;91.50;;;;;;4985289;28;20029;-84
2021/09/27 09:53:29;;;;;;;5.05;4.00;;;23.30;91.40;;;;;;4992106;28;20030;-84
2021/09/27 09:55:59;;;;;;;5.38;3.97;;;23.20;91.60;;;;;;4994225;28;20044;-85
2021/09/27 09:58:43;;;;;;;7.72;3.90;;;23.40;91.20;;;;;;4991063;28;20366;-85
2021/09/27 10:01:19;;;;;;;6.00;3.95;;;23.50;91.40;;;;;;4980501;28;20026;-85
2021/09/27 10:03:55;;;;;;;3.97;3.30;;;23.50;91.10;;;;;;4998467;28;20036;-85
2021/09/27 10:06:46;;;;;;;4.28;3.67;;;23.50;90.70;;;;;;4997115;28;20088;-87
2021/09/27 10:09:35;;;;;;;5.95;3.25;;;23.70;90.30;;;;;;4959832;28;20034;-85
2021/09/27 10:12:06;;;;;;;5.68;3.47;;;23.60;90.60;;;;;;4964207;28;20061;-85
2021/09/27 10:14:36;;;;;;;4.30;3.55;;;23.70;90.60;;;;;;4976047;28;20087;-85
2021/09/27 10:17:34;;;;;;;3.08;2.50;;;23.80;90.30;;;;;;4973129;28;20030;-85
2021/09/27 10:20:09;;;;;;;6.38;2.88;;;23.60;89.90;;;;;;4992623;28;20033;-85
2021/09/27 10:22:39;;;;;;;4.40;2.95;;;23.60;90.00;;;;;;5007093;28;20041;-85
2021/09/27 10:25:28;;;;;;;3.97;3.33;;;23.60;90.40;;;;;;4976370;28;20037;-85
2021/09/27 10:27:54;;;;;;;3.97;2.92;;;23.70;90.10;;;;;;4976229;28;20500;-86
2021/09/27 10:30:22;;;;;;;4.63;3.33;;;23.80;90.40;;;;;;4976007;28;20048;-85
2021/09/27 10:32:58;;;;;;;3.80;3.10;;;23.80;90.00;;;;;;4992801;28;20091;-86
2021/09/27 10:35:29;;;;;;;8.93;3.15;;;23.90;89.90;;;;;;4983883;28;20515;-85
2021/09/27 10:38:08;;;;;;;5.00;2.97;;;23.70;89.50;;;;;;5001039;28;20563;-85
2021/09/27 10:40:34;;;;;;;4.43;3.20;;;23.80;89.60;;;;;;4994930;28;20029;-86
2021/09/27 10:43:00;;;;;;;3.65;2.67;;;23.80;89.00;;;;;;4977915;28;20505;-86
2021/09/27 10:45:26;;;;;;;5.00;2.35;;;23.90;90.10;;;;;;4996544;28;20033;-86
2021/09/27 10:47:54;;;;;;;6.30;3.00;;;24.00;90.00;;;;;;4996942;28;20496;-86
2021/09/27 10:50:36;;;;;;;4.30;2.60;;;23.80;89.10;;;;;;5000394;28;20108;-86
2021/09/27 10:53:30;;;;;;;4.55;3.10;;;23.70;89.00;;;;;;4997363;28;20516;-86
2021/09/27 10:56:22;;;;;;;5.05;3.03;;;23.60;89.30;;;;;;4999560;28;20512;-86
2021/09/27 10:58:52;;;;;;;4.30;3.13;;;23.60;90.10;;;;;;4983709;28;20080;-86
2021/09/27 11:01:30;;;;;;;4.75;3.03;;;23.60;89.60;;;;;;5008137;28;20034;-85
2021/09/27 11:03:56;;;;;;;8.88;3.15;;;23.70;89.70;;;;;;5005403;28;20061;-87
2021/09/27 11:06:38;;;;;;;4.70;2.55;;;23.70;90.00;;;;;;4997643;28;20057;-86
2021/09/27 11:09:27;;;;;;;3.30;3.00;;;23.50;89.40;;;;;;5014696;28;20045;-86
2021/09/27 11:12:03;;;;;;;3.42;2.92;;;23.20;90.10;;;;;;4988326;28;20063;-87
2021/09/27 11:14:50;;;;;;;3.15;2.83;;;23.30;90.40;;;;;;5001625;28;20551;-87
2021/09/27 11:17:39;;;;;;;4.38;3.00;;;23.50;90.40;;;;;;5001772;28;20033;-86
2021/09/27 11:20:16;;;;;;;6.65;3.38;;;23.60;90.10;;;;;;4960380;28;20048;-87
2021/09/27 11:22:53;;;;;;;4.05;2.97;;;23.60;90.80;;;;;;5017188;28;20611;-87
2021/09/27 11:25:25;;;;;;;4.45;2.88;;;23.70;90.20;;;;;;5004180;28;20021;-87
2021/09/27 11:28:36;;;;;;;5.88;3.28;;;23.50;90.10;;;;;;4319529;28;10000520;-87
2021/09/27 11:31:16;;;;;;;4.72;3.08;;;23.60;90.30;;;;;;4978087;28;20414;-86
2021/09/27 11:33:41;;;;;;;5.55;2.92;;;23.50;90.30;;;;;;4993384;28;20037;-86
2021/09/27 11:36:30;;;;;;;8.15;3.47;;;23.50;90.10;;;;;;5017509;28;20028;-87
2021/09/27 11:39:05;;;;;;;5.35;3.35;;;23.40;90.20;;;;;;5018279;28;20424;-87
2021/09/27 11:41:33;;;;;;;6.40;3.00;;;23.60;90.50;;;;;;5009169;28;20041;-87
2021/09/27 11:44:24;;;;;;;3.00;2.58;;;23.70;90.60;;;;;;4967615;28;20029;-87
2021/09/27 11:47:08;;;;;;;3.88;3.47;;;23.70;90.00;;;;;;4978724;28;20753;-89
2021/09/27 11:53:01;;;;;;;4.72;2.90;;;23.50;90.30;;;;;;4963035;28;20030;-87
2021/09/27 11:56:00;;;;;;;4.85;3.28;;;23.70;90.20;;;;;;4964653;28;20113;-87
2021/09/27 11:58:31;;;;;;;8.55;3.08;;;23.70;90.40;;;;;;4627531;28;9999736;-87
2021/09/27 12:01:12;;;;;;;;;;;;;;;;;;;;;
2021/09/27 12:03:40;;;;;;;3.45;2.97;;;24.00;90.50;;;;;;5002105;28;20943;-88
2021/09/27 12:09:30;;;;;;;4.03;3.20;;;24.20;90.10;;;;;;4931081;28;20078;-88
2021/09/27 12:12:56;;;;;;;;;;;;;;;;;;;;;
2021/09/27 12:15:32;;;;;;;3.78;3.03;;;24.20;90.30;;;;;;4985068;28;20655;-88
2021/09/27 12:21:38;;;;;;;9.13;3.35;;;24.20;89.50;;;;;;4919547;28;19930;-86
2021/09/27 12:31:11;;;;;;;4.10;2.42;;;24.40;89.80;;;;;;4781601;29;20049;-89
2021/09/27 12:34:14;;;;;;;4.60;2.63;;;24.60;89.50;;;;;;4875708;29;20037;-90
2021/09/27 12:37:25;;;;;;;7.45;3.00;;;24.70;89.50;;;;;;4834503;29;20131;-89
2021/09/27 12:40:38;;;;;;;4.18;2.30;;;24.90;90.30;;;;;;4885189;29;20039;-87
2021/09/27 12:46:45;;;;;;;6.63;2.85;;;24.50;87.60;;;;;;4918135;29;20051;-89
2021/09/27 12:57:15;;;;;;;4.30;2.25;;;24.40;89.40;;;;;;4899610;28;20019;-88
2021/09/27 13:04:19;;;;;;;;;;;;;;;;;;;;;
2021/09/27 15:38:53;;;;;;;1.77;1.67;;;21.20;92.80;;;;;;5061285;28;20049;-85
2021/09/27 15:41:19;;;;;;;4.78;1.80;;;21.00;93.50;;;;;;5035457;28;20020;-85
2021/09/27 15:43:44;;;;;;;2.80;1.98;;;20.80;94.30;;;;;;5036831;28;20178;-85
2021/09/27 15:46:10;;;;;;;2.63;2.42;;;20.70;94.20;;;;;;5037963;28;20038;-85
2021/09/27 15:48:35;;;;;;;5.30;3.30;;;20.50;94.20;;;;;;5037962;28;20036;-84
2021/09/27 15:51:01;;;;;;;3.08;2.78;;;20.40;95.20;;;;;;5029582;28;20056;-85
2021/09/27 15:53:28;;;;;;;2.88;2.17;;;20.10;95.30;;;;;;5036518;28;20039;-85
2021/09/27 15:55:54;;;;;;;2.80;2.33;;;20.10;95.00;;;;;;5053265;28;20018;-86
2021/09/27 15:58:19;;;;;;;3.97;2.40;;;20.00;94.90;;;;;;5054842;28;20055;-86
2021/09/27 16:00:45;;;;;;;3.17;2.78;;;19.90;95.00;;;;;;5035185;28;20444;-85
2021/09/27 16:03:15;;;;;;;4.60;2.65;;;19.80;95.10;;;;;;5039597;28;20020;-84
2021/09/27 16:05:43;;;;;;;3.92;2.22;;;19.70;95.20;;;;;;5033585;28;20128;-84
2021/09/27 16:08:09;;;;;;;2.63;2.42;;;19.60;95.80;;;;;;5062473;28;20031;-85
2021/09/27 16:10:35;;;;;;;3.92;2.67;;;19.60;95.10;;;;;;5058559;28;20032;-85
2021/09/27 16:13:00;;;;;;;4.47;2.42;;;19.50;95.30;;;;;;5025224;28;20494;-86
2021/09/27 16:15:32;;;;;;;3.28;2.92;;;19.40;95.40;;;;;;5053736;28;20032;-85
2021/09/27 16:17:59;;;;;;;4.90;2.75;;;19.40;95.40;;;;;;5070782;28;20482;-85
2021/09/27 16:20:25;;;;;;;2.65;2.30;;;19.40;95.70;;;;;;5059810;28;20049;-85
2021/09/27 16:22:51;;;;;;;2.78;2.50;;;19.40;95.20;;;;;;5059136;28;20110;-86
2021/09/27 16:25:17;;;;;;;6.85;3.38;;;19.40;95.20;;;;;;5073004;28;20110;-86
2021/09/27 16:27:42;;;;;;;5.05;3.00;;;19.30;95.20;;;;;;5090911;28;20047;-85
2021/09/27 16:30:09;;;;;;;6.85;2.75;;;19.30;96.00;;;;;;5060480;28;20039;-85
2021/09/27 16:32:34;;;;;;;4.30;2.65;;;19.30;96.20;;;;;;5056992;28;20035;-85
2021/09/27 16:35:00;;;;;;;3.80;2.47;;;19.30;96.40;;;;;;5054871;28;20388;-86